Nearby METAR Reports

 

K27K - Georgetown, Kentucky, USA
Distance from station: NE 1mi, 3km
Updated: Mon, 27-Jan-2020 7:15pm EST
Overcast
Overcast
 Wind from NNW
Wind: NNW 7 mph , 11 km/h
Temperature: 36°F , 2°C
Wind Chill: 30°F , -1°C
Dew Point: 32°F , 0°C
Humidity: 87%
Barometer: 29.97 inHg , 1014.9 hPa
Clouds: Overcast
Visibility: 10 miles , 16 km
Cloud details: Overcast 2500 ft
2020/01/28 00:15 K27K 280015Z AUTO 34006KT 10SM OVC025 02/00 A2997 RMK AO1
KLEX - Lexington, Kentucky, USA
Distance from station: SE 25mi, 38km
Updated: Mon, 27-Jan-2020 6:54pm EST
Few Clouds
Few Clouds
 Wind from NNW
Wind: NNW 8 mph , 13 km/h
Temperature: 39°F , 4°C
Wind Chill: 33°F , 1°C
Dew Point: 30°F , -1°C
Humidity: 70%
Barometer: 29.97 inHg , 1014.9 hPa
Clouds: Few Clouds
Visibility: 10 miles , 16 km
Cloud details: Few Clouds 3800 ft
2020/01/27 23:54 KLEX 272354Z 34007KT 10SM FEW038 04/M01 A2997 RMK AO2 SLP151 T00441011 10094 20044 51019
 
KFFT - Frankfort, Kentucky, USA
Distance from station: WNW 24mi, 38km
Updated: Mon, 27-Jan-2020 6:53pm EST
Clear
Clear
 Wind from NW
Wind: NW 9 mph , 15 km/h
Temperature: 37°F , 3°C
Wind Chill: 30°F , -1°C
Dew Point: 30°F , -1°C
Humidity: 75%
Barometer: 29.97 inHg , 1014.9 hPa
Clouds: Clear
Visibility: 10 miles , 16 km
2020/01/27 23:53 KFFT 272353Z AUTO 32008KT 10SM CLR 03/M01 A2997 RMK AO2 SLP155 T00281011 10083 20028 51021
KIOB - Mount Sterling, Kentucky, USA
Distance from station: E 28mi, 46km
Updated: Mon, 27-Jan-2020 6:55pm EST
Overcast
Overcast
 Wind from N
Wind: N 5 mph , 7 km/h
Temperature: 37°F , 3°C
Wind Chill: 33°F , 1°C
Dew Point: 32°F , 0°C
Humidity: 81%
Barometer: 29.98 inHg , 1015.2 hPa
Clouds: Overcast
Visibility: 10 miles , 16 km
Cloud details: Overcast 3700 ft
2020/01/27 23:55 KIOB 272355Z AUTO 36004KT 10SM OVC037 03/00 A2998 RMK AO2
 
KDVK - Danville, Kentucky, USA
Distance from station: SSW 35mi, 56km
Updated: Mon, 27-Jan-2020 6:55pm EST
Clear
Clear
 Wind from NNW
Wind: NNW 5 mph , 7 km/h
Temperature: 37°F , 3°C
Wind Chill: 33°F , 1°C
Dew Point: 30°F , -1°C
Humidity: 75%
Barometer: 29.98 inHg , 1015.2 hPa
Clouds: Clear
Visibility: 10 miles , 16 km
2020/01/27 23:55 KDVK 272355Z AUTO 34004KT 10SM CLR 03/M01 A2998 RMK AO2
K6I2 - Springfield, Kentucky, USA
Distance from station: SW 49mi, 80km
Updated: Mon, 27-Jan-2020 6:55pm EST
Clear
Clear
 Wind from NNW
Wind: NNW 9 mph , 15 km/h
Temperature: 39°F , 4°C
Wind Chill: 33°F , 1°C
Dew Point: 32°F , 0°C
Humidity: 75%
Barometer: 29.98 inHg , 1015.2 hPa
Clouds: Clear
Visibility: 10 miles , 16 km
2020/01/27 23:55 K6I2 272355Z AUTO 34008KT 10SM CLR 04/00 A2998 RMK AO2
 
KSYM - Morehead, Kentucky, USA
Distance from station: ENE 51mi, 83km
Updated: Mon, 27-Jan-2020 6:55pm EST
Overcast
Overcast
 Wind from NNW
Wind: NNW 7 mph , 11 km/h
Temperature: 37°F , 3°C
Wind Chill: 32°F , 0°C
Dew Point: 28°F , -2°C
Humidity: 70%
Barometer: 29.97 inHg , 1014.9 hPa
Clouds: Overcast
Visibility: 10 miles , 16 km
Cloud details: Mostly cloudy 3800 ft
Overcast 4400 ft
2020/01/27 23:55 KSYM 272355Z AUTO 33006KT 10SM BKN038 OVC044 03/M02 A2997 RMK AO2
KFGX - Flemingsburg, Kentucky, USA
Distance from station: NE 54mi, 87km
Updated: Mon, 27-Jan-2020 6:55pm EST
Overcast
Overcast
 Wind from NNE
Wind: NNE 5 mph , 7 km/h
Temperature: 36°F , 2°C
Wind Chill: 32°F , 0°C
Dew Point: 30°F , -1°C
Humidity: 81%
Barometer: 29.98 inHg , 1015.2 hPa
Clouds: Overcast
Visibility: 10 miles , 16 km
Cloud details: Mostly cloudy 2200 ft
Overcast 4100 ft
2020/01/27 23:55 KFGX 272355Z AUTO 02004KT 10SM BKN022 OVC041 02/M01 A2998 RMK AO2 T00171010 10044 20017
 
KLOU - Louisville/Bowmn, Kentucky, USA
Distance from station: W 64mi, 104km
Updated: Mon, 27-Jan-2020 6:53pm EST
Overcast
Overcast
 Wind from NW
Wind: NW 8 mph , 13 km/h
Temperature: 37°F , 3°C
Wind Chill: 31°F , -1°C
Dew Point: 28°F , -2°C
Humidity: 70%
Barometer: 30.01 inHg , 1016.3 hPa
Clouds: Overcast
Visibility: 10 miles , 16 km
Cloud details: Overcast 2000 ft
2020/01/27 23:53 KLOU 272353Z 31007KT 10SM OVC020 03/M02 A3001 RMK AO2 SLP166 T00281022 10078 20028 51020
KSDF - Louisville, Kentucky, USA
Distance from station: W 68mi, 109km
Updated: Mon, 27-Jan-2020 6:56pm EST
Mostly cloudy
Mostly cloudy
 Wind from NNW
Wind: NNW 9 mph , 15 km/h
Temperature: 37°F , 3°C
Wind Chill: 30°F , -1°C
Dew Point: 28°F , -2°C
Humidity: 70%
Barometer: 30.01 inHg , 1016.3 hPa
Clouds: Mostly cloudy
Visibility: 10 miles , 16 km
Cloud details: Mostly cloudy 2100 ft
2020/01/27 23:56 KSDF 272356Z 33008KT 10SM BKN021 03/M02 A3001 RMK AO2 SLP167 T00281022 10083 20028 53020
 
KSME - Somerset, Kentucky, USA
Distance from station: S 69mi, 111km
Updated: Mon, 27-Jan-2020 6:55pm EST
Clear
Clear
 Wind from W
Wind: W 5 mph , 7 km/h
Temperature: 43°F , 6°C
Wind Chill: 40°F , 4°C
Dew Point: 30°F , -1°C
Humidity: 61%
Barometer: 29.97 inHg , 1014.9 hPa
Clouds: Clear
Visibility: 10 miles , 16 km
2020/01/27 23:55 KSME 272355Z AUTO 28004KT 10SM CLR 06/M01 A2997 RMK AO2
KCVG - Covington, Kentucky, USA
Distance from station: N 70mi, 113km
Updated: Mon, 27-Jan-2020 6:52pm EST
Overcast
Overcast
 Wind from NNW
Wind: NNW 9 mph , 15 km/h
Temperature: 34°F , 1°C
Wind Chill: 27°F , -3°C
Dew Point: 27°F , -3°C
Humidity: 75%
Barometer: 29.98 inHg , 1015.2 hPa
Clouds: Overcast
Visibility: 7 miles , 11 km
Cloud details: Overcast 1300 ft
2020/01/27 23:52 KCVG 272352Z 33008KT 7SM OVC013 01/M03 A2998 RMK AO2 SLP159 T00111028 10033 20011 51017
 
KLOZ - London, Kentucky, USA
Distance from station: SSE 70mi, 113km
Updated: Mon, 27-Jan-2020 6:53pm EST
Overcast
Overcast
 Wind from NW
Wind: NW 5 mph , 7 km/h
Temperature: 45°F , 7°C
Wind Chill: 42°F , 6°C
Dew Point: 34°F , 1°C
Humidity: 66%
Barometer: 29.93 inHg , 1013.5 hPa
Clouds: Overcast
Visibility: 10 miles , 16 km
Cloud details: Overcast 4600 ft
2020/01/27 23:53 KLOZ 272353Z AUTO 32004KT 10SM OVC046 07/01 A2993 RMK AO2 SLP138 T00720006 10094 20072 53017
KJKL - Noctor/Jackson, Kentucky, USA
Distance from station: ESE 72mi, 115km
Updated: Mon, 27-Jan-2020 6:53pm EST
Overcast
Overcast
 Wind from varies
Wind: varies 3 mph , 6 km/h
Temperature: 41°F , 5°C
Dew Point: 30°F , -1°C
Humidity: 66%
Barometer: 29.93 inHg , 1013.5 hPa
Clouds: Overcast
Visibility: 10 miles , 16 km
Cloud details: Overcast 3800 ft
2020/01/27 23:53 KJKL 272353Z AUTO VRB03KT 10SM OVC038 05/M01 A2993 RMK AO2 SLP137 T00501006 10067 20050 51017
 
KIMS - Madison, Indiana, USA
Distance from station: NW 72mi, 116km
Updated: Mon, 27-Jan-2020 6:57pm EST
Overcast
Overcast
 Wind from calm
Wind: Calm
Temperature: 34°F , 1°C
Dew Point: 32°F , 0°C
Humidity: 93%
Barometer: 30.02 inHg , 1016.6 hPa
Clouds: Overcast
Visibility: 10 miles , 16 km
Cloud details: Overcast 2300 ft
2020/01/27 23:57 KIMS 272357Z AUTO 00000KT 10SM OVC023 01/00 A3002 RMK AO1
KLUK - Cincinnat/Lunken, Ohio, USA
Distance from station: N 73mi, 118km
Updated: Mon, 27-Jan-2020 6:53pm EST
Overcast
Overcast
 Wind from NW
Wind: NW 7 mph , 11 km/h
Temperature: 36°F , 2°C
Wind Chill: 30°F , -1°C
Dew Point: 28°F , -2°C
Humidity: 75%
Barometer: 30.01 inHg , 1016.3 hPa
Clouds: Overcast
Visibility: 9 miles , 14 km
Cloud details: Overcast 1700 ft
2020/01/27 23:53 KLUK 272353Z 31006KT 9SM OVC017 02/M02 A3001 RMK AO2 SLP168 T00171017 10044 20017 51017
 
KI69 - Batavia, Ohio, USA
Distance from station: NNE 74mi, 119km
Updated: Mon, 27-Jan-2020 6:55pm EST
Overcast
Overcast
 Wind from NW
Wind: NW 5 mph , 7 km/h
Temperature: 34°F , 1°C
Wind Chill: 29°F , -2°C
Dew Point: 30°F , -1°C
Humidity: 87%
Barometer: 29.99 inHg , 1015.6 hPa
Clouds: Overcast
Visibility: 10 miles , 16 km
Cloud details: Mostly cloudy 1400 ft
Overcast 3600 ft
2020/01/27 23:55 KI69 272355Z AUTO 32004KT 10SM BKN014 OVC036 01/M01 A2999 RMK AO2 T00081010 10025 20008